Observation data for Olton on 01/18/2019      Previous  Date  Next       Current Mesonet Observations  Soil Data  Daily Summary Page  Observations in Plain Language
KONS 180600Z 20012KT 05/M02 A30 RMK A01 T00531016  RH  062%=      5-min Rain = 0
KONS 180605Z 20012KT 05/M02 A30 RMK A01 T00541015  RH  062%=      5-min Rain = 0
KONS 180610Z 20012KT 05/M02 A30 RMK A01 T00511016  RH  062%=      5-min Rain = 0
KONS 180615Z 20012KT 05/M02 A2999 RMK A01 T00491015  RH  064%=      5-min Rain = 0
KONS 180620Z 20011KT 05/M02 A2999 RMK A01 T00471015  RH  065%=      5-min Rain = 0
KONS 180625Z 20011KT 05/M02 A2999 RMK A01 T00471015  RH  065%=      5-min Rain = 0
KONS 180630Z 21010KT 05/M02 A2999 RMK A01 T00461015  RH  065%=      5-min Rain = 0
KONS 180635Z 21010KT 05/M02 A2999 RMK A01 T00451015  RH  066%=      5-min Rain = 0
KONS 180640Z 21009KT 04/M02 A2999 RMK A01 T00441015  RH  066%=      5-min Rain = 0
KONS 180645Z 21009KT 04/M02 A2999 RMK A01 T00431015  RH  067%=      5-min Rain = 0
KONS 180650Z 21009KT 04/M02 A2999 RMK A01 T00411015  RH  068%=      5-min Rain = 0
KONS 180655Z 20009KT 04/M02 A2999 RMK A01 T00371015  RH  070%=      5-min Rain = 0
KONS 180700Z 20009KT 03/M02 A2999 RMK A01 T00341015  RH  071%=      5-min Rain = 0
KONS 180705Z 20010KT 03/M02 A2999 RMK A01 T00301015  RH  073%=      5-min Rain = 0
KONS 180710Z 20010KT 03/M02 A2999 RMK A01 T00291015  RH  073%=      5-min Rain = 0
KONS 180715Z 20011KT 03/M02 A2999 RMK A01 T00291016  RH  073%=      5-min Rain = 0
KONS 180720Z 20011KT 03/M02 A2998 RMK A01 T00301015  RH  073%=      5-min Rain = 0
KONS 180725Z 19011KT 03/M01 A2998 RMK A01 T00321014  RH  072%=      5-min Rain = 0
KONS 180730Z 19012KT 04/M01 A2997 RMK A01 T00351013  RH  071%=      5-min Rain = 0
KONS 180735Z 19014KT 04/M01 A2997 RMK A01 T00381013  RH  070%=      5-min Rain = 0
KONS 180740Z 19015KT 04/M01 A2996 RMK A01 T00401012  RH  069%=      5-min Rain = 0
KONS 180745Z 19015KT 05/M01 A2996 RMK A01 T00451011  RH  068%=      5-min Rain = 0
KONS 180750Z 20015KT 05/M01 A2996 RMK A01 T00491010  RH  066%=      5-min Rain = 0
KONS 180755Z 20015KT 05/M01 A2995 RMK A01 T00541009  RH  065%=      5-min Rain = 0
KONS 180800Z 20014KT 06/M01 A2995 RMK A01 T00561008  RH  064%=      5-min Rain = 0
KONS 180805Z 20014KT 06/M01 A2994 RMK A01 T00561008  RH  064%=      5-min Rain = 0
KONS 180810Z 20013KT 06/M01 A2994 RMK A01 T00561008  RH  064%=      5-min Rain = 0
KONS 180815Z 20013KT 05/M01 A2994 RMK A01 T00541008  RH  065%=      5-min Rain = 0
KONS 180820Z 20011KT 05/M01 A2994 RMK A01 T00501009  RH  067%=      5-min Rain = 0
KONS 180825Z 20011KT 04/M01 A2994 RMK A01 T00431010  RH  069%=      5-min Rain = 0
KONS 180830Z 20011KT 04/M01 A2994 RMK A01 T00381011  RH  072%=      5-min Rain = 0
KONS 180835Z 20011KT 04/M01 A2993 RMK A01 T00361011  RH  072%=      5-min Rain = 0
KONS 180840Z 20010KT 03/M01 A2993 RMK A01 T00341011  RH  073%=      5-min Rain = 0
KONS 180845Z 20010KT 03/M01 A2993 RMK A01 T00341010  RH  074%=      5-min Rain = 0
KONS 180850Z 20010KT 03/M01 A2993 RMK A01 T00331011  RH  074%=      5-min Rain = 0
KONS 180855Z 20010KT 03/M01 A2992 RMK A01 T00301012  RH  075%=      5-min Rain = 0
KONS 180900Z 21010KT 03/M01 A2992 RMK A01 T00281013  RH  075%=      5-min Rain = 0
KONS 180905Z 21009KT 03/M01 A2992 RMK A01 T00271014  RH  075%=      5-min Rain = 0
KONS 180910Z 21010KT 02/M02 A2992 RMK A01 T00231016  RH  077%=      5-min Rain = 0
KONS 180915Z 21009KT 02/M02 A2992 RMK A01 T00191016  RH  078%=      5-min Rain = 0
KONS 180920Z 22009KT 02/M02 A2992 RMK A01 T00181017  RH  079%=      5-min Rain = 0
KONS 180925Z 23009KT 02/M02 A2992 RMK A01 T00191015  RH  079%=      5-min Rain = 0
KONS 180930Z 23010KT 02/M02 A2992 RMK A01 T00211015  RH  078%=      5-min Rain = 0
KONS 180935Z 23010KT 02/M02 A2992 RMK A01 T00191017  RH  078%=      5-min Rain = 0
KONS 180940Z 23009KT 02/M02 A2992 RMK A01 T00161018  RH  079%=      5-min Rain = 0
KONS 180945Z 23008KT 01/M02 A2991 RMK A01 T00141019  RH  080%=      5-min Rain = 0
KONS 180950Z 24007KT 01/M02 A2991 RMK A01 T00131019  RH  080%=      5-min Rain = 0
KONS 180955Z 24008KT 01/M02 A2991 RMK A01 T00111019  RH  081%=      5-min Rain = 0
KONS 181000Z 25009KT 01/M02 A2991 RMK A01 T00141017  RH  081%=      5-min Rain = 0
KONS 181005Z 25009KT 02/M01 A299 RMK A01 T00201012  RH  080%=      5-min Rain = 0
KONS 181010Z 25010KT 03/M01 A299 RMK A01 T00271011  RH  077%=      5-min Rain = 0
KONS 181015Z 24010KT 03/M01 A299 RMK A01 T00341010  RH  074%=      5-min Rain = 0
KONS 181020Z 24011KT 04/M01 A2989 RMK A01 T00381009  RH  072%=      5-min Rain = 0
KONS 181025Z 24011KT 04/M01 A2989 RMK A01 T00411009  RH  070%=      5-min Rain = 0
KONS 181030Z 25012KT 04/M01 A2989 RMK A01 T00431010  RH  069%=      5-min Rain = 0
KONS 181035Z 25012KT 05/M01 A2988 RMK A01 T00451010  RH  068%=      5-min Rain = 0
KONS 181040Z 25013KT 05/M01 A2988 RMK A01 T00471011  RH  067%=      5-min Rain = 0
KONS 181045Z 24013KT 05/M01 A2988 RMK A01 T00471010  RH  067%=      5-min Rain = 0
KONS 181050Z 24012KT 05/M01 A2987 RMK A01 T00481010  RH  067%=      5-min Rain = 0
KONS 181055Z 24012KT 05/M01 A2987 RMK A01 T00491010  RH  066%=      5-min Rain = 0
KONS 181100Z 24013KT 05/M01 A2987 RMK A01 T00501010  RH  066%=      5-min Rain = 0
KONS 181105Z 24012KT 05/M01 A2986 RMK A01 T00521010  RH  065%=      5-min Rain = 0
KONS 181110Z 24011KT 05/M01 A2986 RMK A01 T00531009  RH  065%=      5-min Rain = 0
KONS 181115Z 24012KT 05/M01 A2985 RMK A01 T00541009  RH  065%=      5-min Rain = 0
KONS 181120Z 25011KT 06/M01 A2985 RMK A01 T00551009  RH  064%=      5-min Rain = 0
KONS 181125Z 25011KT 06/M01 A2984 RMK A01 T00561009  RH  064%=      5-min Rain = 0
KONS 181130Z 24012KT 05/M01 A2984 RMK A01 T00541009  RH  064%=      5-min Rain = 0
KONS 181135Z 24012KT 05/M01 A2984 RMK A01 T00541009  RH  065%=      5-min Rain = 0
KONS 181140Z 25011KT 05/M01 A2983 RMK A01 T00541009  RH  065%=      5-min Rain = 0
KONS 181145Z 24011KT 05/M01 A2983 RMK A01 T00541009  RH  064%=      5-min Rain = 0
KONS 181150Z 24012KT 06/M01 A2983 RMK A01 T00551009  RH  064%=      5-min Rain = 0
KONS 181155Z 24012KT 06/M01 A2982 RMK A01 T00561009  RH  064%=      5-min Rain = 0
KONS 181200Z 24012KT 06/M01 A2982 RMK A01 T00571009  RH  063%=      5-min Rain = 0
KONS 181205Z 24014KT 06/M01 A2983 RMK A01 T00581008  RH  063%=      5-min Rain = 0
KONS 181210Z 24015KT 06/M01 A2983 RMK A01 T00591008  RH  063%=      5-min Rain = 0
KONS 181215Z 24016KT 06/M01 A2983 RMK A01 T00591008  RH  062%=      5-min Rain = 0
KONS 181220Z 24014KT 06/M01 A2983 RMK A01 T00601008  RH  063%=      5-min Rain = 0
KONS 181225Z 25013KT 06/M01 A2982 RMK A01 T00601007  RH  063%=      5-min Rain = 0
KONS 181230Z 25014KT 06/M01 A2982 RMK A01 T00601007  RH  063%=      5-min Rain = 0
KONS 181235Z 24014KT 06/M01 A2982 RMK A01 T00611006  RH  063%=      5-min Rain = 0
KONS 181240Z 24013KT 06/M01 A2982 RMK A01 T00611006  RH  063%=      5-min Rain = 0
KONS 181245Z 24013KT 06/M01 A2982 RMK A01 T00601006  RH  063%=      5-min Rain = 0
KONS 181250Z 24013KT 06/M01 A2982 RMK A01 T00621006  RH  063%=      5-min Rain = 0
KONS 181255Z 23012KT 06/M01 A2982 RMK A01 T00641005  RH  062%=      5-min Rain = 0
KONS 181300Z 23012KT 07/M00 A2982 RMK A01 T00651004  RH  062%=      5-min Rain = 0
KONS 181305Z 23013KT 07/M00 A2982 RMK A01 T00661004  RH  062%=      5-min Rain = 0
KONS 181310Z 23013KT 07/M00 A2982 RMK A01 T00671003  RH  062%=      5-min Rain = 0
KONS 181315Z 23013KT 07/M00 A2982 RMK A01 T00671003  RH  062%=      5-min Rain = 0
KONS 181320Z 23012KT 07/M00 A2982 RMK A01 T00651003  RH  062%=      5-min Rain = 0
KONS 181325Z 24011KT 06/M00 A2982 RMK A01 T00631003  RH  063%=      5-min Rain = 0
KONS 181330Z 24010KT 06/M00 A2982 RMK A01 T00621003  RH  064%=      5-min Rain = 0
KONS 181335Z 23011KT 06/M00 A2982 RMK A01 T00611002  RH  065%=      5-min Rain = 0
KONS 181340Z 23010KT 06/M00 A2982 RMK A01 T00591003  RH  065%=      5-min Rain = 0
KONS 181345Z 22011KT 06/M00 A2982 RMK A01 T00561003  RH  067%=      5-min Rain = 0
KONS 181350Z 22012KT 06/M00 A2982 RMK A01 T00551003  RH  067%=      5-min Rain = 0
KONS 181355Z 22013KT 06/M00 A2982 RMK A01 T00571003  RH  066%=      5-min Rain = 0
KONS 181400Z 22013KT 06/M00 A2982 RMK A01 T00591002  RH  065%=      5-min Rain = 0
KONS 181405Z 22011KT 06/M00 A2982 RMK A01 T00581002  RH  066%=      5-min Rain = 0
KONS 181410Z 22011KT 05/M00 A2982 RMK A01 T00531003  RH  068%=      5-min Rain = 0
KONS 181415Z 22010KT 05/M00 A2982 RMK A01 T00521003  RH  068%=      5-min Rain = 0
KONS 181420Z 22010KT 05/M00 A2982 RMK A01 T00501003  RH  069%=      5-min Rain = 0
KONS 181425Z 22010KT 05/M00 A2982 RMK A01 T00511003  RH  069%=      5-min Rain = 0
KONS 181430Z 23009KT 05/M00 A2981 RMK A01 T00531001  RH  069%=      5-min Rain = 0
KONS 181435Z 24009KT 06/00 A2981 RMK A01 T00580001  RH  068%=      5-min Rain = 0
KONS 181440Z 24010KT 07/00 A2981 RMK A01 T00650003  RH  065%=      5-min Rain = 0
KONS 181445Z 24011KT 07/01 A2981 RMK A01 T00720005  RH  063%=      5-min Rain = 0
KONS 181450Z 24013KT 08/01 A2981 RMK A01 T00780005  RH  061%=      5-min Rain = 0
KONS 181455Z 24014KT 08/00 A298 RMK A01 T00800004  RH  059%=      5-min Rain = 0
KONS 181500Z 24015KT 08/00 A2981 RMK A01 T00830004  RH  058%=      5-min Rain = 0
KONS 181505Z 25016KT 09/01 A2981 RMK A01 T00870005  RH  057%=      5-min Rain = 0
KONS 181510Z 25017KT 09/01 A2981 RMK A01 T00910006  RH  056%=      5-min Rain = 0
KONS 181515Z 25015KT 10/01 A2981 RMK A01 T00950007  RH  055%=      5-min Rain = 0
KONS 181520Z 25015KT 10/01 A2981 RMK A01 T00970007  RH  054%=      5-min Rain = 0
KONS 181525Z 25015KT 10/01 A298 RMK A01 T00980007  RH  053%=      5-min Rain = 0
KONS 181530Z 25015G21KT 10/01 A298 RMK A01 T00990006  RH  053%=      5-min Rain = 0
KONS 181535Z 25016KT 10/00 A298 RMK A01 T00970004  RH  053%=      5-min Rain = 0
KONS 181540Z 25015KT 10/00 A298 RMK A01 T00950003  RH  053%=      5-min Rain = 0
KONS 181545Z 25014KT 10/01 A298 RMK A01 T00980005  RH  053%=      5-min Rain = 0
KONS 181550Z 26015KT 10/01 A298 RMK A01 T01040005  RH  051%=      5-min Rain = 0
KONS 181555Z 25015KT 11/01 A298 RMK A01 T01130006  RH  048%=      5-min Rain = 0
KONS 181600Z 25015G20KT 12/01 A298 RMK A01 T01210005  RH  046%=      5-min Rain = 0
KONS 181605Z 25015G20KT 13/01 A298 RMK A01 T01270005  RH  044%=      5-min Rain = 0
KONS 181610Z 25018G24KT 13/00 A298 RMK A01 T01330001  RH  041%=      5-min Rain = 0
KONS 181615Z 26018G23KT 14/M00 A298 RMK A01 T01371002  RH  039%=      5-min Rain = 0
KONS 181620Z 26017G22KT 14/M00 A298 RMK A01 T01411001  RH  038%=      5-min Rain = 0
KONS 181625Z 26015KT 14/00 A2979 RMK A01 T01440000  RH  038%=      5-min Rain = 0
KONS 181630Z 26017G23KT 15/M00 A2979 RMK A01 T01451003  RH  036%=      5-min Rain = 0
KONS 181635Z 26017KT 15/M00 A2979 RMK A01 T01481003  RH  036%=      5-min Rain = 0
KONS 181640Z 26018KT 15/M01 A2979 RMK A01 T01511005  RH  035%=      5-min Rain = 0
KONS 181645Z 26020G25KT 15/M01 A2979 RMK A01 T01541007  RH  034%=      5-min Rain = 0
KONS 181650Z 25020G25KT 16/M01 A2979 RMK A01 T01551007  RH  033%=      5-min Rain = 0
KONS 181655Z 25019KT 16/M01 A2978 RMK A01 T01581007  RH  033%=      5-min Rain = 0
KONS 181700Z 25018G25KT 16/M01 A2978 RMK A01 T01611007  RH  032%=      5-min Rain = 0
KONS 181705Z 25019G25KT 16/M01 A2978 RMK A01 T01631006  RH  032%=      5-min Rain = 0
KONS 181710Z 25019G25KT 17/M01 A2978 RMK A01 T01651007  RH  031%=      5-min Rain = 0
KONS 181715Z 25019G25KT 17/M01 A2978 RMK A01 T01671007  RH  031%=      5-min Rain = 0
KONS 181720Z 25018KT 17/M01 A2978 RMK A01 T01691006  RH  031%=      5-min Rain = 0
KONS 181725Z 26021G28KT 17/M01 A2977 RMK A01 T01711010  RH  030%=      5-min Rain = 0
KONS 181730Z 26025G35KT 17/M01 A2977 RMK A01 T01691010  RH  030%=      5-min Rain = 0
KONS 181735Z 26027G35KT 17/M01 A2977 RMK A01 T01701009  RH  030%=      5-min Rain = 0
KONS 181740Z 26025G30KT 17/M01 A2977 RMK A01 T01711007  RH  030%=      5-min Rain = 0
KONS 181745Z 26029G39KT 17/M01 A2976 RMK A01 T01741005  RH  030%=      5-min Rain = 0
KONS 181750Z 26028G37KT 17/M00 A2975 RMK A01 T01741004  RH  030%=      5-min Rain = 0
KONS 181755Z 26031G37KT 17/M00 A2975 RMK A01 T01741004  RH  030%=      5-min Rain = 0
KONS 181800Z 26028G35KT 17/M00 A2974 RMK A01 T01741003  RH  030%=      5-min Rain = 0
KONS 181805Z 26027G33KT 18/M00 A2974 RMK A01 T01761003  RH  030%=      5-min Rain = 0
KONS 181810Z 27025G32KT 18/M00 A2974 RMK A01 T01781001  RH  030%=      5-min Rain = 0
KONS 181815Z 26028G37KT 18/M00 A2973 RMK A01 T01781001  RH  030%=      5-min Rain = 0
KONS 181820Z 26030G39KT 18/M00 A2973 RMK A01 T01791001  RH  030%=      5-min Rain = 0
KONS 181825Z 27029G39KT 18/M00 A2973 RMK A01 T01771001  RH  030%=      5-min Rain = 0
KONS 181830Z 27030G37KT 18/M00 A2972 RMK A01 T01771002  RH  030%=      5-min Rain = 0
KONS 181835Z 27028G37KT 18/M00 A2972 RMK A01 T01751001  RH  031%=      5-min Rain = 0
KONS 181840Z 27029G37KT 18/M00 A2972 RMK A01 T01761004  RH  030%=      5-min Rain = 0
KONS 181845Z 28031G38KT 18/M00 A2972 RMK A01 T01761002  RH  030%=      5-min Rain = 0
KONS 181850Z 27032G39KT 18/M00 A2971 RMK A01 T01761003  RH  030%=      5-min Rain = 0
KONS 181855Z 27032G43KT 18/M00 A297 RMK A01 T01761004  RH  030%=      5-min Rain = 0
KONS 181900Z 27030G39KT 17/M00 A297 RMK A01 T01741004  RH  030%=      5-min Rain = 0
KONS 181905Z 26028G39KT 18/M01 A2969 RMK A01 T01771005  RH  029%=      5-min Rain = 0
KONS 181910Z 27031G41KT 18/M01 A2969 RMK A01 T01761006  RH  029%=      5-min Rain = 0
KONS 181915Z 27032G40KT 18/M01 A2969 RMK A01 T01761009  RH  029%=      5-min Rain = 0
KONS 181920Z 26028G37KT 18/M00 A2969 RMK A01 T01761004  RH  030%=      5-min Rain = 0
KONS 181925Z 27028G35KT 18/M00 A2969 RMK A01 T01781003  RH  030%=      5-min Rain = 0
KONS 181930Z 26029G39KT 18/M00 A2968 RMK A01 T01761002  RH  030%=      5-min Rain = 0
KONS 181935Z 26030G38KT 18/M00 A2967 RMK A01 T01751004  RH  030%=      5-min Rain = 0
KONS 181940Z 26027G36KT 18/00 A2967 RMK A01 T01780001  RH  031%=      5-min Rain = 0
KONS 181945Z 27025G32KT 18/00 A2967 RMK A01 T01790002  RH  030%=      5-min Rain = 0
KONS 181950Z 27026G33KT 18/00 A2967 RMK A01 T01790002  RH  031%=      5-min Rain = 0
KONS 181955Z 27023G30KT 18/00 A2966 RMK A01 T01800002  RH  030%=      5-min Rain = 0
KONS 182000Z 26027G35KT 18/M00 A2966 RMK A01 T01821002  RH  029%=      5-min Rain = 0
KONS 182005Z 26027G37KT 18/M00 A2965 RMK A01 T01811003  RH  029%=      5-min Rain = 0
KONS 182010Z 26028G35KT 18/00 A2965 RMK A01 T01790001  RH  030%=      5-min Rain = 0
KONS 182015Z 25029G35KT 18/00 A2965 RMK A01 T01790002  RH  030%=      5-min Rain = 0
KONS 182020Z 26033G40KT 18/M01 A2965 RMK A01 T01791008  RH  029%=      5-min Rain = 0
KONS 182025Z 26030G37KT 18/M00 A2965 RMK A01 T01761001  RH  030%=      5-min Rain = 0
KONS 182030Z 26031G39KT 18/M00 A2965 RMK A01 T01761002  RH  030%=      5-min Rain = 0
KONS 182035Z 26032G40KT 17/M00 A2965 RMK A01 T01701003  RH  031%=      5-min Rain = 0
KONS 182040Z 26031G42KT 17/M01 A2965 RMK A01 T01651011  RH  031%=      5-min Rain = 0
KONS 182045Z 26029G37KT 16/M01 A2965 RMK A01 T01611012  RH  031%=      5-min Rain = 0
KONS 182050Z 25028G34KT 16/M01 A2964 RMK A01 T01591008  RH  032%=      5-min Rain = 0
KONS 182055Z 25030G36KT 16/M01 A2964 RMK A01 T01611011  RH  031%=      5-min Rain = 0
KONS 182100Z 26028G36KT 16/M01 A2965 RMK A01 T01581009  RH  032%=      5-min Rain = 0
KONS 182105Z 26031G39KT 17/M00 A2965 RMK A01 T01661004  RH  032%=      5-min Rain = 0
KONS 182110Z 26031G38KT 17/M01 A2965 RMK A01 T01671007  RH  031%=      5-min Rain = 0
KONS 182115Z 26029G35KT 17/M01 A2966 RMK A01 T01661013  RH  030%=      5-min Rain = 0
KONS 182120Z 26029G35KT 17/M02 A2966 RMK A01 T01651016  RH  029%=      5-min Rain = 0
KONS 182125Z 27023G31KT 17/M01 A2966 RMK A01 T01651013  RH  030%=      5-min Rain = 0
KONS 182130Z 27024G32KT 17/M01 A2966 RMK A01 T01651011  RH  031%=      5-min Rain = 0
KONS 182135Z 26026G32KT 17/M01 A2966 RMK A01 T01651010  RH  031%=      5-min Rain = 0
KONS 182140Z 25024G32KT 16/M01 A2966 RMK A01 T01631011  RH  031%=      5-min Rain = 0
KONS 182145Z 26024G31KT 17/M02 A2966 RMK A01 T01651015  RH  030%=      5-min Rain = 0
KONS 182150Z 26022G30KT 17/M01 A2966 RMK A01 T01701014  RH  029%=      5-min Rain = 0
KONS 182155Z 27023G30KT 17/M02 A2966 RMK A01 T01661021  RH  028%=      5-min Rain = 0
KONS 182200Z 26024G31KT 16/M03 A2966 RMK A01 T01611029  RH  027%=      5-min Rain = 0
KONS 182205Z 26024G32KT 16/M04 A2965 RMK A01 T01621037  RH  026%=      5-min Rain = 0
KONS 182210Z 26028G35KT 16/M04 A2965 RMK A01 T01641043  RH  024%=      5-min Rain = 0
KONS 182215Z 26026G33KT 16/M05 A2965 RMK A01 T01581045  RH  025%=      5-min Rain = 0
KONS 182220Z 26025G31KT 16/M06 A2965 RMK A01 T01551057  RH  023%=      5-min Rain = 0
KONS 182225Z 26023G29KT 16/M06 A2966 RMK A01 T01561064  RH  022%=      5-min Rain = 0
KONS 182230Z 26027G34KT 16/M07 A2965 RMK A01 T01551065  RH  022%=      5-min Rain = 0
KONS 182235Z 27028G35KT 15/M07 A2966 RMK A01 T01541067  RH  021%=      5-min Rain = 0
KONS 182240Z 27022G31KT 15/M07 A2965 RMK A01 T01521065  RH  022%=      5-min Rain = 0
KONS 182245Z 27022G30KT 15/M07 A2965 RMK A01 T01501067  RH  022%=      5-min Rain = 0
KONS 182250Z 27019G26KT 15/M07 A2967 RMK A01 T01491066  RH  022%=      5-min Rain = 0
KONS 182255Z 27019G25KT 15/M07 A2967 RMK A01 T01511070  RH  021%=      5-min Rain = 0
KONS 182300Z 27025G34KT 16/M08 A2966 RMK A01 T01571083  RH  019%=      5-min Rain = 0
KONS 182305Z 28026G35KT 16/M09 A2966 RMK A01 T01581087  RH  018%=      5-min Rain = 0
KONS 182310Z 27030G40KT 15/M08 A2966 RMK A01 T01531077  RH  020%=      5-min Rain = 0
KONS 182315Z 28033G41KT 15/M07 A2966 RMK A01 T01461065  RH  023%=      5-min Rain = 0
KONS 182320Z 28030G38KT 14/M07 A2967 RMK A01 T01421065  RH  023%=      5-min Rain = 0
KONS 182325Z 28028G37KT 14/M06 A2967 RMK A01 T01391064  RH  024%=      5-min Rain = 0
KONS 182330Z 28024G31KT 14/M06 A2967 RMK A01 T01371058  RH  026%=      5-min Rain = 0
KONS 182335Z 28023G29KT 14/M06 A2967 RMK A01 T01361057  RH  026%=      5-min Rain = 0
KONS 182340Z 28024G33KT 14/M06 A2967 RMK A01 T01351059  RH  026%=      5-min Rain = 0
KONS 182345Z 28022G30KT 13/M06 A2967 RMK A01 T01341057  RH  026%=      5-min Rain = 0
KONS 182350Z 28021G30KT 13/M06 A2967 RMK A01 T01311058  RH  027%=      5-min Rain = 0
KONS 182355Z 28022G30KT 13/M06 A2967 RMK A01 T01311060  RH  026%=      5-min Rain = 0
KONS 190000Z 28022G27KT 13/M06 A2967 RMK A01 T01291059  RH  027%=      5-min Rain = 0
KONS 190005Z 28021G26KT 13/M06 A2967 RMK A01 T01261057  RH  028%=      5-min Rain = 0
KONS 190010Z 28019G25KT 13/M05 A2967 RMK A01 T01251054  RH  029%=      5-min Rain = 0
KONS 190015Z 28017KT 12/M05 A2967 RMK A01 T01221053  RH  029%=      5-min Rain = 0
KONS 190020Z 28017KT 12/M05 A2967 RMK A01 T01211051  RH  030%=      5-min Rain = 0
KONS 190025Z 30027G39KT 12/M04 A2968 RMK A01 T01221038  RH  033%=      5-min Rain = 0
KONS 190030Z 35037G45KT 11/M02 A2969 RMK A01 T01111017  RH  041%=      5-min Rain = 0
KONS 190035Z 35029G37KT 10/M01 A2972 RMK A01 T00971012  RH  047%=      5-min Rain = 0
KONS 190040Z 35030G38KT 09/M01 A2973 RMK A01 T00931011  RH  049%=      5-min Rain = 0
KONS 190045Z 35027G36KT 09/M01 A2973 RMK A01 T00901010  RH  050%=      5-min Rain = 0
KONS 190050Z 35027G33KT 09/M01 A2975 RMK A01 T00871010  RH  051%=      5-min Rain = 0
KONS 190055Z 35024G30KT 08/M01 A2976 RMK A01 T00831009  RH  053%=      5-min Rain = 0
KONS 190100Z 35022G28KT 08/M01 A2977 RMK A01 T00801009  RH  054%=      5-min Rain = 0
KONS 190105Z 35021G28KT 08/M01 A2978 RMK A01 T00791007  RH  055%=      5-min Rain = 0
KONS 190110Z 34026G33KT 08/M01 A2979 RMK A01 T00801005  RH  056%=      5-min Rain = 0
KONS 190115Z 34029G35KT 08/00 A2979 RMK A01 T007700-0  RH  059%=      5-min Rain = 0
KONS 190120Z 33022G34KT 07/01 A298 RMK A01 T00710012  RH  067%=      5-min Rain = 0
KONS 190125Z 33027G38KT 07/02 A298 RMK A01 T00670022  RH  074%=      5-min Rain = 0
KONS 190130Z 34028G37KT 06/02 A298 RMK A01 T00610023  RH  077%=      5-min Rain = 0
KONS 190135Z 33025G33KT 06/03 A2981 RMK A01 T00570025  RH  081%=      5-min Rain = 0
KONS 190140Z 33025G34KT 05/03 A2982 RMK A01 T00540027  RH  083%=      5-min Rain = 0
KONS 190145Z 33026G34KT 05/02 A2983 RMK A01 T00510024  RH  084%=      5-min Rain = 0
KONS 190150Z 33024G32KT 04/02 A2984 RMK A01 T00440020  RH  085%=      5-min Rain = 0
KONS 190155Z 33022G30KT 04/02 A2985 RMK A01 T00400018  RH  087%=      5-min Rain = 0
KONS 190200Z 33018G23KT 04/02 A2985 RMK A01 T00370018  RH  089%=      5-min Rain = 0
KONS 190205Z 34021G29KT 04/02 A2986 RMK A01 T00360017  RH  089%=      5-min Rain = 0
KONS 190210Z 35020G26KT 04/02 A2987 RMK A01 T00350015  RH  088%=      5-min Rain = 0
KONS 190215Z 35021G28KT 03/02 A2987 RMK A01 T00340015  RH  088%=      5-min Rain = 0
KONS 190220Z 35022G30KT 03/01 A2988 RMK A01 T00330013  RH  088%=      5-min Rain = 0
KONS 190225Z 35025G31KT 03/01 A2988 RMK A01 T00310011  RH  087%=      5-min Rain = 0
KONS 190230Z 35024G29KT 03/01 A2988 RMK A01 T00300009  RH  087%=      5-min Rain = 0
KONS 190235Z 35023G30KT 03/01 A2989 RMK A01 T00300007  RH  086%=      5-min Rain = 0
KONS 190240Z 35025G33KT 03/01 A2989 RMK A01 T00300006  RH  085%=      5-min Rain = 0
KONS 190245Z 35030G39KT 03/00 A2989 RMK A01 T00280001  RH  083%=      5-min Rain = 0
KONS 190250Z 35032G38KT 03/M00 A299 RMK A01 T00251004  RH  082%=      5-min Rain = 0
KONS 190255Z 35029G37KT 02/M01 A299 RMK A01 T00231007  RH  082%=      5-min Rain = 0
KONS 190300Z 35029G38KT 02/M01 A2991 RMK A01 T00211008  RH  082%=      5-min Rain = 0
KONS 190305Z 35026G33KT 02/M01 A2992 RMK A01 T00201007  RH  083%=      5-min Rain = 0
KONS 190310Z 35026G35KT 02/M01 A2992 RMK A01 T00191007  RH  084%=      5-min Rain = 0
KONS 190315Z 35028G35KT 02/M01 A2993 RMK A01 T00181007  RH  084%=      5-min Rain = 0
KONS 190320Z 35024G29KT 02/M01 A2993 RMK A01 T00181006  RH  085%=      5-min Rain = 0
KONS 190325Z 34026G34KT 02/M01 A2993 RMK A01 T00181006  RH  085%=      5-min Rain = 0
KONS 190330Z 35027G35KT 02/M01 A2994 RMK A01 T00191007  RH  083%=      5-min Rain = 0
KONS 190335Z 34030G39KT 02/M01 A2995 RMK A01 T00201010  RH  082%=      5-min Rain = 0
KONS 190340Z 35032G45KT 02/M02 A2995 RMK A01 T00191017  RH  078%=      5-min Rain = 0
KONS 190345Z 35031G42KT 02/M02 A2996 RMK A01 T00171020  RH  077%=      5-min Rain = 0
KONS 190350Z 35030G36KT 02/M02 A2996 RMK A01 T00161020  RH  078%=      5-min Rain = 0
KONS 190355Z 35028G34KT 02/M02 A2997 RMK A01 T00151019  RH  079%=      5-min Rain = 0
KONS 190400Z 35028G35KT 02/M02 A2997 RMK A01 T00151019  RH  079%=      5-min Rain = 0
KONS 190405Z 35025G34KT 02/M02 A2998 RMK A01 T00151017  RH  080%=      5-min Rain = 0
KONS 190410Z 34023G31KT 01/M02 A2998 RMK A01 T00131015  RH  082%=      5-min Rain = 0
KONS 190415Z 34026G32KT 01/M01 A2999 RMK A01 T00121014  RH  084%=      5-min Rain = 0
KONS 190420Z 34023G28KT 01/M01 A2999 RMK A01 T00111012  RH  085%=      5-min Rain = 0
KONS 190425Z 34019G27KT 01/M01 A2999 RMK A01 T00121010  RH  087%=      5-min Rain = 0
KONS 190430Z 34025G35KT 01/M01 A2999 RMK A01 T00111010  RH  086%=      5-min Rain = 0
KONS 190435Z 34023G30KT 01/M01 A30 RMK A01 T00091010  RH  088%=      5-min Rain = 0
KONS 190440Z 34020G26KT 01/M01 A3001 RMK A01 T00081008  RH  090%=      5-min Rain = 0
KONS 190445Z 34017G22KT 01/M01 A3001 RMK A01 T00061008  RH  092%=      5-min Rain = 0
KONS 190450Z 34019G27KT 00/M01 A3002 RMK A01 T00041007  RH  093%=      5-min Rain = 0
KONS 190455Z 34020G26KT 00/M01 A3002 RMK A01 T00031007  RH  094%=      5-min Rain = 0
KONS 190500Z 34018KT 00/M01 A3002 RMK A01 T00031007  RH  094%=      5-min Rain = 0
KONS 190505Z 34018G25KT 00/M01 A3003 RMK A01 T00031006  RH  095%=      5-min Rain = 0
KONS 190510Z 34022G28KT 00/M01 A3003 RMK A01 T00031006  RH  095%=      5-min Rain = 0
KONS 190515Z 35023G29KT 00/M01 A3003 RMK A01 T00021007  RH  095%=      5-min Rain = 0
KONS 190520Z 35022G29KT 00/M01 A3004 RMK A01 T00021008  RH  095%=      5-min Rain = 0
KONS 190525Z 34024G34KT 00/M01 A3004 RMK A01 T00011009  RH  094%=      5-min Rain = 0
KONS 190530Z 34025G30KT 00/M01 A3004 RMK A01 T00021010  RH  093%=      5-min Rain = 0
KONS 190535Z 34024G30KT 00/M01 A3005 RMK A01 T00021012  RH  092%=      5-min Rain = 0
KONS 190540Z 34024G30KT 00/M01 A3005 RMK A01 T00021013  RH  091%=      5-min Rain = 0
KONS 190545Z 34022KT 00/M01 A3005 RMK A01 T00021013  RH  090%=      5-min Rain = 0
KONS 190550Z 34021G27KT 00/M01 A3005 RMK A01 T00021014  RH  090%=      5-min Rain = 0
KONS 190555Z 34023G28KT 00/M01 A3006 RMK A01 T00011014  RH  090%=      5-min Rain = 0

Page generated in 0.0093 seconds.